Weather at Van Nuys Airport

Public forecast

Using degrees Fahrenheit for public forecast. Weather courtesy of forecast.io.

Current aviation weather report (METAR) for Van Nuys Airport

Retrieved 2021/11/29 16:51 UTC (44 minutes ago):

KVNY 291651Z 00000KT 10SM CLR 19/M04 A3012 RMK AO2 SLP194 T01891044

Aviation forecast (TAF) for Van Nuys Airport

Retrieved 2021/11/29 12:51 UTC (5 hours ago):

TAF KVNY 291148Z 2912/3012 VRB03KT P6SM SKC FM292200 14006KT P6SM SKC FM300200 VRB03KT P6SM SKC